Terminal Aerodrome Forecast
Issued by NWS

Home | Current Version | Previous Version | Graphics & Text | Print | Product List | Glossary On
Versions: 1 2 3 4 5 6 7 8 9 10 11 12 13 14 15 16 17 18 19 20 21
000
FTUS43 KMPX 251000 AAA
TAFRWF
TAF AMD
KRWF 251000Z 2510/2606 VRB02KT 1SM BR VCSH OVC003
     FM251300 28004KT 4SM BR SCT003 OVC005
     FM251600 26006KT P6SM SCT005 OVC009
     FM251800 25009KT P6SM SCT009 BKN015
     FM260000 28006KT P6SM SCT020 OVC040=

USA.gov is the U.S. government's official web portal to all federal, state and local government web resources and services.